createdAt,value
2018-03-18T00:00:42.298Z,21.57
2018-03-18T00:03:11.606Z,23.13
2018-03-18T00:05:41.127Z,20.10
2018-03-18T00:08:10.541Z,21.50
2018-03-18T00:10:39.928Z,21.10
2018-03-18T00:13:09.179Z,20.30
2018-03-18T00:15:38.532Z,22.37
2018-03-18T00:18:11.751Z,19.10
2018-03-18T00:20:40.996Z,23.77
2018-03-18T00:23:10.239Z,25.47
2018-03-18T00:25:39.511Z,20.20
2018-03-18T00:28:08.852Z,24.77
2018-03-18T00:30:39.025Z,23.80
2018-03-18T00:33:09.638Z,25.37
2018-03-18T00:35:38.970Z,21.80
2018-03-18T00:38:08.307Z,22.53
2018-03-18T00:40:37.503Z,22.30
2018-03-18T00:43:06.964Z,23.17
2018-03-18T00:45:36.278Z,20.27
2018-03-18T00:48:05.572Z,20.33
2018-03-18T00:50:34.877Z,21.67
2018-03-18T00:53:04.274Z,22.93
2018-03-18T00:55:33.678Z,26.13
2018-03-18T00:58:02.904Z,22.37
2018-03-18T01:00:32.334Z,21.00
2018-03-18T01:03:01.639Z,21.27
2018-03-18T01:05:30.884Z,23.10
2018-03-18T01:08:00.148Z,23.17
2018-03-18T01:10:29.520Z,23.67
2018-03-18T01:12:59.529Z,20.80
2018-03-18T01:15:28.815Z,27.97
2018-03-18T01:17:59.002Z,21.80
2018-03-18T01:20:28.354Z,22.93
2018-03-18T01:22:57.617Z,21.90
2018-03-18T01:25:27.843Z,25.17
2018-03-18T01:27:57.343Z,22.90
2018-03-18T01:30:26.570Z,21.43
2018-03-18T01:32:55.588Z,22.00
2018-03-18T01:35:24.861Z,21.63
2018-03-18T01:37:54.955Z,21.83
2018-03-18T01:40:24.262Z,25.07
2018-03-18T01:42:54.805Z,21.67
2018-03-18T01:45:24.132Z,22.80
2018-03-18T01:47:53.388Z,20.70
2018-03-18T01:50:22.786Z,21.10
2018-03-18T01:53:03.992Z,19.70
2018-03-18T01:55:33.268Z,22.33
2018-03-18T01:58:03.285Z,17.17
2018-03-18T02:00:32.553Z,18.80
2018-03-18T02:03:01.897Z,19.53
2018-03-18T02:05:31.999Z,18.57
2018-03-18T02:08:01.427Z,18.97
2018-03-18T02:10:30.646Z,21.47
2018-03-18T02:13:00.001Z,21.90
2018-03-18T02:15:29.215Z,20.43
2018-03-18T02:17:58.461Z,18.67
2018-03-18T02:20:27.728Z,19.03
2018-03-18T02:22:57.753Z,17.37
2018-03-18T02:25:27.121Z,20.27
2018-03-18T02:27:56.421Z,17.80
2018-03-18T02:30:25.785Z,22.80
2018-03-18T02:32:54.981Z,19.33
2018-03-18T02:35:24.224Z,18.77
2018-03-18T02:37:53.442Z,20.50
2018-03-18T02:40:22.727Z,19.57
2018-03-18T02:42:52.038Z,17.83
2018-03-18T02:45:22.145Z,17.23
2018-03-18T02:47:51.412Z,17.77
2018-03-18T02:50:20.629Z,20.13
2018-03-18T02:52:49.906Z,17.80
2018-03-18T02:55:19.323Z,18.77
2018-03-18T02:57:48.658Z,18.10
2018-03-18T03:00:18.853Z,19.37
2018-03-18T03:02:48.093Z,19.43
2018-03-18T03:05:18.383Z,17.83
2018-03-18T03:07:47.631Z,20.20
2018-03-18T03:10:16.929Z,18.50
2018-03-18T03:12:46.177Z,17.97
2018-03-18T03:15:15.475Z,17.97
2018-03-18T03:17:44.682Z,20.30
2018-03-18T03:20:13.977Z,17.63
2018-03-18T03:22:43.337Z,18.60
2018-03-18T03:25:13.344Z,15.60
2018-03-18T03:27:42.622Z,16.70
2018-03-18T03:30:11.819Z,19.93
2018-03-18T03:32:41.144Z,15.73
2018-03-18T03:35:10.498Z,19.97
2018-03-18T03:37:39.746Z,17.37
2018-03-18T03:40:09.119Z,18.93
2018-03-18T03:42:39.168Z,18.37
2018-03-18T03:45:08.370Z,18.00
2018-03-18T03:47:37.607Z,18.83
2018-03-18T03:50:07.634Z,19.40
2018-03-18T03:52:36.884Z,18.07
2018-03-18T03:55:06.154Z,17.57
2018-03-18T03:57:36.217Z,19.27
2018-03-18T04:00:06.258Z,18.70
2018-03-18T04:02:35.497Z,15.00
2018-03-18T04:05:05.155Z,18.37
2018-03-18T04:07:34.393Z,18.27
2018-03-18T04:10:03.863Z,18.80
2018-03-18T04:12:33.263Z,16.10
2018-03-18T04:15:02.490Z,16.60
2018-03-18T04:17:31.962Z,18.07
2018-03-18T04:20:01.277Z,19.23
2018-03-18T04:22:30.580Z,16.37
2018-03-18T04:24:59.980Z,19.00
2018-03-18T04:27:29.198Z,19.33
2018-03-18T04:29:59.199Z,21.03
2018-03-18T04:32:29.224Z,17.57
2018-03-18T04:34:58.413Z,14.10
2018-03-18T04:37:28.458Z,15.63
2018-03-18T04:39:58.420Z,17.60
2018-03-18T04:42:27.835Z,18.53
2018-03-18T04:44:57.082Z,18.77
2018-03-18T04:47:26.338Z,18.53
2018-03-18T04:49:55.570Z,17.03
2018-03-18T04:52:24.870Z,17.13
2018-03-18T04:54:54.871Z,20.97
2018-03-18T04:57:24.888Z,15.17
2018-03-18T04:59:54.880Z,19.33
2018-03-18T05:02:24.894Z,19.00
2018-03-18T05:04:54.113Z,16.20
2018-03-18T05:07:23.414Z,16.43
2018-03-18T05:09:53.457Z,14.33
2018-03-18T05:12:22.704Z,18.67
2018-03-18T05:14:51.909Z,17.43
2018-03-18T05:17:21.156Z,18.30
2018-03-18T05:19:50.442Z,21.13
2018-03-18T05:22:20.553Z,14.63
2018-03-18T05:24:50.590Z,15.53
2018-03-18T05:27:20.045Z,17.00
2018-03-18T05:29:49.454Z,17.90
2018-03-18T05:32:18.740Z,14.37
2018-03-18T05:34:47.996Z,18.57
2018-03-18T05:37:17.558Z,18.80
2018-03-18T05:39:47.027Z,18.60
2018-03-18T05:42:16.250Z,19.17
2018-03-18T05:44:45.548Z,16.83
2018-03-18T05:47:14.752Z,17.43
2018-03-18T05:49:44.158Z,15.50
2018-03-18T05:52:13.667Z,16.47
2018-03-18T05:54:42.942Z,19.30
2018-03-18T05:57:12.313Z,17.60
2018-03-18T05:59:41.520Z,16.53
2018-03-18T06:02:10.761Z,16.83
2018-03-18T06:04:40.170Z,17.33
2018-03-18T06:07:09.666Z,17.33
2018-03-18T06:09:38.935Z,17.57
2018-03-18T06:12:08.166Z,17.00
2018-03-18T06:14:37.567Z,15.60
2018-03-18T06:17:06.971Z,17.17
2018-03-18T06:19:36.226Z,17.70
2018-03-18T06:22:06.299Z,18.03
2018-03-18T06:24:35.688Z,12.00
2018-03-18T06:27:04.937Z,15.13
2018-03-18T06:29:34.290Z,15.60
2018-03-18T06:32:03.653Z,15.87
2018-03-18T06:34:33.606Z,14.03
2018-03-18T06:37:02.874Z,14.13
2018-03-18T06:39:32.117Z,15.40
2018-03-18T06:42:01.341Z,14.20
2018-03-18T06:44:31.322Z,15.30
2018-03-18T06:47:00.525Z,12.77
2018-03-18T06:49:29.810Z,17.33
2018-03-18T06:51:59.121Z,15.47
2018-03-18T06:54:29.240Z,15.10
2018-03-18T06:56:58.525Z,16.70
2018-03-18T06:59:27.842Z,13.23
2018-03-18T07:01:57.097Z,12.97
2018-03-18T07:04:26.329Z,14.23
2018-03-18T07:06:55.578Z,12.57
2018-03-18T07:09:24.848Z,13.50
2018-03-18T07:11:54.131Z,15.20
2018-03-18T07:14:23.440Z,13.73
2018-03-18T07:16:52.649Z,14.03
2018-03-18T07:19:22.035Z,17.53
2018-03-18T07:21:51.300Z,14.37
2018-03-18T07:24:20.740Z,12.80
2018-03-18T07:26:50.757Z,13.47
2018-03-18T07:29:20.973Z,12.70
2018-03-18T07:31:49.983Z,14.77
2018-03-18T07:34:20.026Z,12.83
2018-03-18T07:36:49.315Z,15.80
2018-03-18T07:39:19.395Z,16.20
2018-03-18T07:41:48.615Z,11.60
2018-03-18T07:44:17.853Z,14.43
2018-03-18T07:46:47.089Z,14.73
2018-03-18T07:49:16.340Z,13.30
2018-03-18T07:51:45.614Z,13.27
2018-03-18T07:54:16.118Z,14.07
2018-03-18T07:56:45.331Z,14.23
2018-03-18T07:59:14.630Z,12.20
2018-03-18T08:01:43.903Z,14.53
2018-03-18T08:04:13.180Z,12.67
2018-03-18T08:06:42.446Z,13.90
2018-03-18T08:09:11.679Z,16.77
2018-03-18T08:11:40.912Z,12.97
2018-03-18T08:14:10.253Z,13.93
2018-03-18T08:16:40.166Z,13.40
2018-03-18T08:19:10.135Z,14.50
2018-03-18T08:21:39.380Z,12.43
2018-03-18T08:24:08.746Z,17.10
2018-03-18T08:26:38.070Z,13.00
2018-03-18T08:29:08.103Z,12.67
2018-03-18T08:31:38.092Z,12.33
2018-03-18T08:34:07.317Z,13.43
2018-03-18T08:36:36.526Z,11.77
2018-03-18T08:39:05.729Z,15.30
2018-03-18T08:41:34.980Z,13.43
2018-03-18T08:44:04.225Z,14.70
2018-03-18T08:46:33.432Z,11.57
2018-03-18T08:49:02.460Z,14.20
2018-03-18T08:51:31.700Z,13.33
2018-03-18T08:54:00.935Z,11.73
2018-03-18T08:56:30.162Z,13.87
2018-03-18T08:58:59.450Z,14.00
2018-03-18T09:01:28.686Z,11.53
2018-03-18T09:03:59.493Z,12.40
2018-03-18T09:06:28.795Z,12.83
2018-03-18T09:08:58.096Z,15.80
2018-03-18T09:11:28.882Z,12.33
2018-03-18T09:13:58.863Z,16.07
2018-03-18T09:16:28.125Z,13.70
2018-03-18T09:18:57.443Z,11.87
2018-03-18T09:21:26.746Z,13.60
2018-03-18T09:23:56.810Z,11.60
2018-03-18T09:26:26.163Z,14.47
2018-03-18T09:28:55.547Z,13.40
2018-03-18T09:31:31.729Z,13.27
2018-03-18T09:34:01.095Z,14.27
2018-03-18T09:36:30.392Z,11.20
2018-03-18T09:38:59.642Z,12.10
2018-03-18T09:41:28.949Z,13.87
2018-03-18T09:43:58.437Z,11.00
2018-03-18T09:46:27.458Z,12.60
2018-03-18T09:48:56.418Z,10.87
2018-03-18T09:51:25.625Z,10.17
2018-03-18T09:53:54.837Z,11.83
2018-03-18T09:56:24.849Z,10.30
2018-03-18T09:58:54.843Z,14.57
2018-03-18T10:01:24.074Z,12.63
2018-03-18T10:03:53.321Z,11.87
2018-03-18T10:06:22.561Z,11.77
2018-03-18T10:08:51.846Z,14.23
2018-03-18T10:11:21.135Z,11.43
2018-03-18T10:13:50.137Z,11.03
2018-03-18T10:16:19.091Z,11.30
2018-03-18T10:18:48.216Z,10.43
2018-03-18T10:21:17.448Z,11.53
2018-03-18T10:23:47.472Z,10.03
2018-03-18T10:26:17.514Z,15.53
2018-03-18T10:28:46.831Z,9.97
2018-03-18T10:31:16.042Z,11.00
2018-03-18T10:33:45.249Z,12.33
2018-03-18T10:36:14.550Z,12.20
2018-03-18T10:38:43.886Z,13.93
2018-03-18T10:41:13.143Z,9.77
2018-03-18T10:43:42.451Z,12.30
2018-03-18T10:46:11.667Z,12.17
2018-03-18T10:48:40.905Z,13.10
2018-03-18T10:51:10.246Z,11.03
2018-03-18T10:53:39.753Z,10.20
2018-03-18T10:56:09.880Z,11.93
2018-03-18T10:58:39.103Z,10.83
2018-03-18T11:01:10.832Z,13.70
2018-03-18T11:03:40.040Z,12.27
2018-03-18T11:06:09.281Z,12.37
2018-03-18T11:08:38.540Z,13.73
2018-03-18T11:11:07.924Z,13.73
2018-03-18T11:13:37.385Z,10.87
2018-03-18T11:16:06.732Z,9.70
2018-03-18T11:18:36.035Z,11.10
2018-03-18T11:21:05.435Z,13.87
2018-03-18T11:23:34.688Z,9.97
2018-03-18T11:26:04.118Z,12.40
2018-03-18T11:28:33.434Z,14.50
2018-03-18T11:31:02.726Z,10.50
2018-03-18T11:33:31.949Z,12.60
2018-03-18T11:36:02.107Z,12.03
2018-03-18T11:38:31.353Z,12.10
2018-03-18T11:41:00.576Z,11.33
2018-03-18T11:43:30.720Z,12.13
2018-03-18T11:45:59.895Z,11.20
2018-03-18T11:48:29.271Z,11.47
2018-03-18T11:50:58.484Z,12.27
2018-03-18T11:53:28.536Z,13.27
2018-03-18T11:55:58.821Z,11.03
2018-03-18T11:58:28.191Z,11.93
2018-03-18T12:00:57.425Z,12.67
2018-03-18T12:03:26.697Z,11.93
2018-03-18T12:05:55.905Z,11.40
2018-03-18T12:11:33.496Z,11.97
2018-03-18T12:14:03.226Z,11.97
2018-03-18T12:16:32.219Z,13.83
2018-03-18T12:19:01.206Z,10.10
2018-03-18T12:21:30.399Z,12.50
2018-03-18T12:23:59.714Z,11.80
2018-03-18T12:26:29.220Z,14.57
2018-03-18T12:28:58.409Z,12.60
2018-03-18T12:31:27.812Z,12.50
2018-03-18T12:33:57.047Z,14.03
2018-03-18T12:36:26.288Z,12.43
2018-03-18T12:38:55.657Z,13.97
2018-03-18T12:41:25.753Z,13.30
2018-03-18T12:43:55.957Z,11.53
2018-03-18T12:46:25.245Z,12.83
2018-03-18T12:48:54.657Z,12.73
2018-03-18T12:51:23.958Z,15.93
2018-03-18T12:53:53.174Z,12.77
2018-03-18T12:56:23.192Z,14.67
2018-03-18T12:58:52.560Z,13.80
2018-03-18T13:01:21.876Z,13.30
2018-03-18T13:03:51.116Z,14.50
2018-03-18T13:06:21.402Z,15.07
2018-03-18T13:08:50.733Z,12.97
2018-03-18T13:11:20.850Z,12.77
2018-03-18T13:13:50.078Z,12.67
2018-03-18T13:16:19.309Z,11.07
2018-03-18T13:18:48.613Z,12.87
2018-03-18T13:21:17.807Z,11.97
2018-03-18T13:23:47.037Z,12.43
2018-03-18T13:26:16.295Z,11.27
2018-03-18T13:28:45.494Z,11.97
2018-03-18T13:31:14.813Z,12.97
2018-03-18T13:33:44.094Z,12.17
2018-03-18T13:36:13.319Z,11.93
2018-03-18T13:38:42.569Z,11.87
2018-03-18T13:41:11.831Z,16.00
2018-03-18T13:43:42.234Z,13.77
2018-03-18T13:46:11.467Z,14.13
2018-03-18T13:48:41.460Z,12.33
2018-03-18T13:51:12.028Z,18.17
2018-03-18T13:56:48.665Z,14.77
2018-03-18T13:59:17.893Z,13.37
2018-03-18T14:01:47.297Z,15.30
2018-03-18T14:04:17.302Z,13.70
2018-03-18T14:06:47.399Z,15.10
2018-03-18T14:09:16.602Z,16.13
2018-03-18T14:11:45.964Z,14.47
2018-03-18T14:14:16.122Z,14.17
2018-03-18T14:19:57.519Z,12.17
2018-03-18T14:22:26.817Z,11.57
2018-03-18T14:24:56.185Z,15.07
2018-03-18T14:27:25.528Z,10.87
2018-03-18T14:29:55.493Z,12.53
2018-03-18T14:32:24.709Z,11.77
2018-03-18T14:34:53.984Z,11.47
2018-03-18T14:37:24.008Z,12.80
2018-03-18T14:39:53.195Z,11.67
2018-03-18T14:42:23.275Z,15.17
2018-03-18T14:44:52.475Z,10.60
2018-03-18T14:47:21.718Z,11.33
2018-03-18T14:49:50.966Z,12.90
2018-03-18T14:52:20.409Z,12.47
2018-03-18T14:54:49.616Z,12.10
2018-03-18T14:57:18.853Z,12.70
2018-03-18T14:59:48.122Z,11.43
2018-03-18T15:02:17.363Z,11.37
2018-03-18T15:04:46.712Z,16.30
2018-03-18T15:07:16.068Z,13.80
2018-03-18T15:09:45.322Z,12.77
2018-03-18T15:12:14.536Z,13.30
2018-03-18T15:14:43.773Z,14.63
2018-03-18T15:17:13.032Z,14.50
2018-03-18T15:19:42.260Z,13.43
2018-03-18T15:22:11.453Z,15.23
2018-03-18T15:24:40.676Z,13.13
2018-03-18T15:27:09.856Z,14.63
2018-03-18T15:29:39.057Z,17.23
2018-03-18T15:32:08.295Z,14.90
2018-03-18T15:34:38.266Z,16.23
2018-03-18T15:37:07.455Z,13.07
2018-03-18T15:39:36.648Z,13.20
2018-03-18T15:42:05.959Z,14.83
2018-03-18T15:44:35.198Z,12.53
2018-03-18T15:47:05.177Z,14.07
2018-03-18T15:49:34.382Z,14.87
2018-03-18T15:52:03.713Z,13.33
2018-03-18T15:54:33.854Z,15.13
2018-03-18T15:57:03.323Z,14.97
2018-03-18T15:59:32.639Z,14.27
2018-03-18T16:02:02.046Z,15.43
2018-03-18T16:04:31.456Z,14.30
2018-03-18T16:07:00.731Z,14.43
2018-03-18T16:09:29.911Z,14.20
2018-03-18T16:11:59.226Z,12.23
2018-03-18T16:14:28.462Z,12.10
2018-03-18T16:16:57.737Z,13.87
2018-03-18T16:19:26.993Z,12.90
2018-03-18T16:21:56.275Z,13.67
2018-03-18T16:24:25.498Z,13.40
2018-03-18T16:26:54.778Z,16.27
2018-03-18T16:29:35.897Z,12.47
2018-03-18T16:32:05.121Z,11.97
2018-03-18T16:34:34.375Z,13.40
2018-03-18T16:37:03.605Z,13.13
2018-03-18T16:39:32.883Z,14.60
2018-03-18T16:42:02.105Z,14.93
2018-03-18T16:44:32.079Z,12.10
2018-03-18T16:47:01.329Z,12.93
2018-03-18T16:49:31.349Z,13.93
2018-03-18T16:52:01.312Z,13.07
2018-03-18T16:54:30.564Z,12.23
2018-03-18T16:56:59.786Z,12.67
2018-03-18T16:59:29.094Z,12.27
2018-03-18T17:01:58.313Z,14.93
2018-03-18T17:04:27.601Z,11.63
2018-03-18T17:06:57.604Z,12.67
2018-03-18T17:09:26.850Z,14.30
2018-03-18T17:11:56.225Z,13.83
2018-03-18T17:14:25.531Z,14.47
2018-03-18T17:16:54.841Z,12.00
2018-03-18T17:19:24.157Z,15.93
2018-03-18T17:21:53.386Z,11.43
2018-03-18T17:24:22.727Z,14.53
2018-03-18T17:26:51.922Z,11.73
2018-03-18T17:29:21.245Z,14.03
2018-03-18T17:31:50.451Z,13.63
2018-03-18T17:37:16.500Z,14.50
2018-03-18T17:39:46.520Z,13.00
2018-03-18T17:42:16.511Z,14.23
2018-03-18T17:44:58.312Z,13.07
2018-03-18T17:47:42.810Z,12.83
2018-03-18T17:50:34.438Z,13.00
2018-03-18T17:53:16.688Z,14.77
2018-03-18T17:55:45.882Z,14.93
2018-03-18T17:58:15.082Z,10.23
2018-03-18T18:00:44.370Z,12.37
2018-03-18T18:03:15.719Z,13.87
2018-03-18T18:05:44.998Z,10.93
2018-03-18T18:08:14.307Z,13.90
2018-03-18T18:10:43.559Z,11.57
2018-03-18T18:13:14.462Z,10.90
2018-03-18T18:15:56.501Z,12.77
2018-03-18T18:18:26.747Z,13.13
2018-03-18T18:20:56.145Z,17.30
2018-03-18T18:23:25.510Z,13.20
2018-03-18T18:26:00.092Z,11.60
2018-03-18T18:28:29.458Z,12.60
2018-03-18T18:30:58.690Z,11.17
2018-03-18T18:33:27.904Z,14.10
2018-03-18T18:35:57.127Z,13.07
2018-03-18T18:38:26.365Z,12.87
2018-03-18T18:41:00.293Z,12.37
2018-03-18T18:43:29.639Z,15.53
2018-03-18T18:48:59.501Z,12.77
2018-03-18T18:51:28.760Z,12.77
2018-03-18T18:53:57.984Z,13.37
2018-03-18T18:56:27.315Z,12.00
2018-03-18T18:58:56.585Z,11.87
2018-03-18T19:01:26.573Z,12.50
2018-03-18T19:03:55.874Z,12.43
2018-03-18T19:06:25.995Z,13.77
2018-03-18T19:08:55.336Z,13.43
2018-03-18T19:11:35.101Z,13.87
2018-03-18T19:14:04.420Z,15.00
2018-03-18T19:16:33.622Z,13.10
2018-03-18T19:19:02.917Z,13.70
2018-03-18T19:21:32.283Z,13.77
2018-03-18T19:24:02.561Z,15.13
2018-03-18T19:26:31.754Z,11.80
2018-03-18T19:29:01.811Z,13.07
2018-03-18T19:31:31.105Z,13.20
2018-03-18T19:34:06.297Z,12.70
2018-03-18T19:36:35.507Z,14.30
2018-03-18T19:39:04.796Z,12.07
2018-03-18T19:41:34.137Z,11.17
2018-03-18T19:44:03.500Z,14.47
2018-03-18T19:46:32.763Z,12.23
2018-03-18T19:49:02.051Z,11.93
2018-03-18T19:51:41.706Z,14.23
2018-03-18T19:54:19.542Z,12.10
2018-03-18T19:56:57.201Z,12.83
2018-03-18T19:59:30.354Z,13.83
2018-03-18T20:02:00.143Z,14.73
2018-03-18T20:04:29.365Z,13.63
2018-03-18T20:06:58.661Z,13.30
2018-03-18T20:09:27.864Z,12.77
2018-03-18T20:11:57.823Z,12.27
2018-03-18T20:14:27.055Z,13.93
2018-03-18T20:16:56.309Z,13.93
2018-03-18T20:19:25.609Z,12.07
2018-03-18T20:21:55.168Z,13.33
2018-03-18T20:24:24.552Z,12.97
2018-03-18T20:27:00.208Z,12.07
2018-03-18T20:29:29.455Z,12.67
2018-03-18T20:31:58.667Z,12.20
2018-03-18T20:34:27.925Z,11.73
2018-03-18T20:36:57.093Z,11.83
2018-03-18T20:39:26.391Z,12.53
2018-03-18T20:41:55.656Z,12.77
2018-03-18T20:44:24.907Z,12.27
2018-03-18T20:46:54.376Z,11.57
2018-03-18T20:49:23.903Z,12.57
2018-03-18T20:51:53.143Z,14.10
2018-03-18T20:54:23.171Z,15.23
2018-03-18T20:56:52.629Z,14.87
2018-03-18T20:59:21.848Z,11.60
2018-03-18T21:01:51.178Z,11.77
2018-03-18T21:04:20.678Z,12.53
2018-03-18T21:06:50.644Z,13.30
2018-03-18T21:09:23.321Z,16.20
2018-03-18T21:11:52.926Z,12.27
2018-03-18T21:17:30.145Z,12.67
2018-03-18T21:19:59.391Z,15.93
2018-03-18T21:22:29.387Z,13.10
2018-03-18T21:24:59.528Z,12.63
2018-03-18T21:27:28.973Z,11.97
2018-03-18T21:29:58.270Z,14.73
2018-03-18T21:32:27.606Z,13.80
2018-03-18T21:34:57.625Z,14.97
2018-03-18T21:37:27.643Z,14.47
2018-03-18T21:39:57.329Z,12.07
2018-03-18T21:42:26.598Z,10.73
2018-03-18T21:44:55.875Z,12.10
2018-03-18T21:47:25.233Z,13.07
2018-03-18T21:49:54.623Z,11.00
2018-03-18T21:52:23.938Z,13.63
2018-03-18T21:54:53.266Z,13.73
2018-03-18T21:57:22.513Z,11.47
2018-03-18T21:59:52.521Z,13.80
2018-03-18T22:02:21.754Z,13.50
2018-03-18T22:04:51.653Z,12.07
2018-03-18T22:07:20.946Z,14.60
2018-03-18T22:09:50.341Z,14.53
2018-03-18T22:12:19.651Z,12.93
2018-03-18T22:14:49.052Z,14.60
2018-03-18T22:17:18.397Z,15.67
2018-03-18T22:19:47.709Z,16.67
2018-03-18T22:22:17.161Z,13.07
2018-03-18T22:24:46.461Z,14.90
2018-03-18T22:27:16.169Z,11.17
2018-03-18T22:29:45.674Z,16.83
2018-03-18T22:32:14.893Z,13.73
2018-03-18T22:34:44.202Z,13.17
2018-03-18T22:37:13.881Z,13.70
2018-03-18T22:39:43.182Z,13.57
2018-03-18T22:42:13.300Z,13.37
2018-03-18T22:44:42.534Z,12.67
2018-03-18T22:47:11.900Z,13.00
2018-03-18T22:49:41.218Z,12.90
2018-03-18T22:52:10.523Z,14.07
2018-03-18T22:54:42.665Z,11.23
2018-03-18T22:57:11.962Z,13.40
2018-03-18T22:59:41.218Z,13.43
2018-03-18T23:02:10.477Z,15.67
2018-03-18T23:04:39.683Z,13.77
2018-03-18T23:07:09.739Z,12.60
2018-03-18T23:09:39.038Z,13.37
2018-03-18T23:12:08.350Z,14.03
2018-03-18T23:14:37.841Z,13.80
2018-03-18T23:17:07.225Z,13.37
2018-03-18T23:19:36.491Z,14.47
2018-03-18T23:22:05.897Z,12.50
2018-03-18T23:24:35.977Z,10.27
2018-03-18T23:27:06.045Z,12.87
2018-03-18T23:29:36.051Z,14.53
2018-03-18T23:32:05.383Z,17.50
2018-03-18T23:34:34.751Z,14.70
2018-03-18T23:37:04.022Z,12.27
2018-03-18T23:39:33.336Z,11.37
2018-03-18T23:42:02.650Z,13.30
2018-03-18T23:44:31.968Z,14.87
2018-03-18T23:47:01.977Z,16.07
2018-03-18T23:49:31.412Z,16.87
2018-03-18T23:52:01.378Z,13.93
2018-03-18T23:54:31.463Z,15.50
2018-03-18T23:57:00.781Z,14.13
2018-03-18T23:59:30.109Z,14.70
